Time;durP1;ratioP1;P1;durP2;ratioP2;P2;SDS_P1;SDS_P2;PMS_P1;PMS_P2;Temp;Humidity;BMP_temperature;BMP_pressure;BME280_temperature;BME280_humidity;BME280_pressure;Samples;Min_cycle;Max_cycle;Signal;HPM_P1;HPM_P2
2024/01/20 00:02:03;;;;;;;1.40;0.53;;;;;;;2.91;100.00;99130.94;5109562;28;20636;-59
2024/01/20 00:04:30;;;;;;;0.23;0.23;;;;;;;2.95;100.00;99134.97;5109567;28;20196;-60
2024/01/20 00:06:57;;;;;;;0.67;0.50;;;;;;;2.89;100.00;99129.34;5109527;28;20697;-59
2024/01/20 00:09:24;;;;;;;0.30;0.30;;;;;;;2.84;100.00;99118.59;5109642;28;20201;-59
2024/01/20 00:11:52;;;;;;;0.70;0.70;;;;;;;2.81;100.00;99106.94;5109478;27;20221;-60
2024/01/20 00:14:19;;;;;;;0.83;0.40;;;;;;;2.77;100.00;99105.41;5109508;28;20197;-59
2024/01/20 00:16:47;;;;;;;0.40;0.40;;;;;;;2.76;100.00;99123.13;5109406;28;20233;-60
2024/01/20 00:19:14;;;;;;;0.50;0.50;;;;;;;2.66;100.00;99117.66;5109597;28;20208;-59
2024/01/20 00:21:40;;;;;;;0.70;0.70;;;;;;;2.63;100.00;99127.84;5109393;28;20198;-59
2024/01/20 00:24:08;;;;;;;0.60;0.60;;;;;;;2.60;100.00;99133.84;5109390;28;20199;-59
2024/01/20 00:26:35;;;;;;;0.97;0.67;;;;;;;2.56;100.00;99131.50;5109305;28;20270;-59
2024/01/20 00:29:03;;;;;;;0.90;0.43;;;;;;;2.70;100.00;99135.13;5109237;28;20193;-59
2024/01/20 00:31:30;;;;;;;0.30;0.30;;;;;;;2.57;100.00;99148.28;5108965;28;20233;-59
2024/01/20 00:33:58;;;;;;;0.50;0.50;;;;;;;2.53;100.00;99154.31;5108991;28;20204;-60
2024/01/20 00:36:25;;;;;;;0.50;0.50;;;;;;;2.51;100.00;99161.97;5109652;28;20239;-60
2024/01/20 00:38:51;;;;;;;0.37;0.37;;;;;;;2.53;100.00;99177.03;5109099;28;20197;-59
2024/01/20 00:41:18;;;;;;;0.33;0.33;;;;;;;2.47;100.00;99173.03;5109330;28;20220;-59
2024/01/20 00:43:45;;;;;;;0.43;0.43;;;;;;;2.28;100.00;99172.91;5109035;28;20572;-59
2024/01/20 00:46:12;;;;;;;1.20;0.40;;;;;;;2.19;100.00;99171.56;5109113;28;20204;-59
2024/01/20 00:48:39;;;;;;;0.87;0.33;;;;;;;2.16;100.00;99168.34;5109411;28;20216;-59
2024/01/20 00:51:06;;;;;;;0.57;0.57;;;;;;;2.08;100.00;99167.78;5109069;28;20209;-59
2024/01/20 00:53:33;;;;;;;0.40;0.40;;;;;;;2.03;100.00;99176.31;5109005;28;20277;-59
2024/01/20 00:55:59;;;;;;;0.40;0.40;;;;;;;1.93;100.00;99197.72;5108771;28;20233;-59
2024/01/20 00:58:26;;;;;;;0.23;0.23;;;;;;;1.71;100.00;99191.75;5109023;28;20666;-60
2024/01/20 01:00:53;;;;;;;0.40;0.33;;;;;;;1.62;100.00;99214.75;5108868;28;20208;-59
2024/01/20 01:03:20;;;;;;;0.13;0.13;;;;;;;1.46;100.00;99210.22;5109022;28;20197;-59
2024/01/20 01:05:46;;;;;;;0.10;0.10;;;;;;;1.34;100.00;99218.19;5108883;28;20216;-59
2024/01/20 01:08:15;;;;;;;0.37;0.37;;;;;;;1.27;100.00;99196.59;5108595;28;20561;-59
2024/01/20 01:10:42;;;;;;;0.67;0.57;;;;;;;1.10;100.00;99208.00;5108801;28;20595;-59
2024/01/20 01:13:09;;;;;;;1.60;0.30;;;;;;;1.03;100.00;99219.16;5108880;28;20219;-59
2024/01/20 01:15:36;;;;;;;0.83;0.77;;;;;;;0.85;100.00;99217.22;5108904;28;20213;-59
2024/01/20 01:18:02;;;;;;;0.37;0.37;;;;;;;0.78;100.00;99213.22;5108666;28;20239;-59
2024/01/20 01:20:29;;;;;;;0.43;0.43;;;;;;;0.79;100.00;99230.00;5108706;28;20207;-59
2024/01/20 01:22:56;;;;;;;0.20;0.20;;;;;;;0.81;100.00;99228.25;5108684;28;20197;-60
2024/01/20 01:25:24;;;;;;;0.40;0.40;;;;;;;0.77;100.00;99236.75;5108751;28;20197;-59
2024/01/20 01:27:51;;;;;;;0.33;0.33;;;;;;;0.70;100.00;99231.09;5108584;28;20200;-59
2024/01/20 01:30:19;;;;;;;1.40;0.80;;;;;;;0.68;100.00;99223.56;5108455;28;20208;-59
2024/01/20 01:32:46;;;;;;;0.33;0.33;;;;;;;0.60;100.00;99220.47;5108452;28;20234;-59
2024/01/20 01:35:12;;;;;;;0.30;0.30;;;;;;;0.51;100.00;99230.78;5108679;28;20201;-59
2024/01/20 01:37:39;;;;;;;0.43;0.43;;;;;;;0.48;100.00;99225.03;5108384;28;20228;-59
2024/01/20 01:40:07;;;;;;;0.63;0.63;;;;;;;0.35;100.00;99229.56;5108595;28;20244;-58
2024/01/20 01:42:36;;;;;;;0.87;0.63;;;;;;;0.33;100.00;99226.31;5108712;28;20216;-58
2024/01/20 01:45:02;;;;;;;0.47;0.47;;;;;;;0.30;100.00;99226.38;5112426;28;20242;-58
2024/01/20 01:47:29;;;;;;;0.50;0.50;;;;;;;0.28;100.00;99239.00;5112396;28;20201;-58
2024/01/20 01:49:56;;;;;;;0.33;0.33;;;;;;;0.27;100.00;99247.41;5112287;28;20193;-58
2024/01/20 01:52:24;;;;;;;0.83;0.40;;;;;;;0.29;100.00;99244.84;5112138;28;20205;-58
2024/01/20 01:54:51;;;;;;;1.23;0.57;;;;;;;0.26;100.00;99249.94;5112080;28;20201;-58
2024/01/20 01:57:18;;;;;;;0.90;0.90;;;;;;;0.35;100.00;99257.22;5112096;28;20720;-58
2024/01/20 01:59:47;;;;;;;0.30;0.30;;;;;;;0.31;100.00;99258.19;5112202;28;20682;-59
2024/01/20 02:02:13;;;;;;;0.87;0.40;;;;;;;0.29;100.00;99269.97;5112079;28;20455;-58
2024/01/20 02:04:40;;;;;;;0.60;0.40;;;;;;;0.19;100.00;99265.22;5112047;28;20193;-58
2024/01/20 02:07:07;;;;;;;0.47;0.30;;;;;;;0.28;100.00;99274.19;5111950;28;20689;-58
2024/01/20 02:09:35;;;;;;;0.40;0.40;;;;;;;0.24;100.00;99286.91;5111957;28;20208;-58
2024/01/20 02:12:03;;;;;;;0.20;0.20;;;;;;;0.17;100.00;99286.22;5111651;28;20208;-58
2024/01/20 02:14:30;;;;;;;0.17;0.17;;;;;;;0.22;100.00;99280.22;5112024;28;20198;-58
2024/01/20 02:16:58;;;;;;;0.40;0.40;;;;;;;0.20;100.00;99289.50;5111949;28;20728;-58
2024/01/20 02:19:25;;;;;;;0.10;0.10;;;;;;;0.19;100.00;99285.31;5111874;28;20201;-58
2024/01/20 02:21:52;;;;;;;0.37;0.37;;;;;;;0.31;100.00;99284.16;5111894;28;20198;-58
2024/01/20 02:24:20;;;;;;;0.30;0.30;;;;;;;0.24;100.00;99299.47;5111912;28;20196;-58
2024/01/20 02:26:48;;;;;;;0.40;0.40;;;;;;;0.13;100.00;99310.63;5111438;28;20217;-58
2024/01/20 02:29:14;;;;;;;1.23;1.03;;;;;;;0.11;100.00;99311.53;5111638;28;20197;-58
2024/01/20 02:31:41;;;;;;;1.00;0.90;;;;;;;0.08;100.00;99309.91;5111701;28;20197;-58
2024/01/20 02:34:08;;;;;;;1.03;0.40;;;;;;;0.10;100.00;99320.78;5111478;28;20197;-58
2024/01/20 02:36:35;;;;;;;1.37;0.53;;;;;;;0.08;100.00;99319.97;5111481;28;20263;-59
2024/01/20 02:39:01;;;;;;;0.47;0.47;;;;;;;0.06;100.00;99319.22;5111414;28;20232;-58
2024/01/20 02:41:30;;;;;;;0.40;0.40;;;;;;;0.11;100.00;99322.41;5111355;28;20197;-58
2024/01/20 02:43:56;;;;;;;0.77;0.50;;;;;;;0.09;100.00;99314.09;5111178;28;20201;-58
2024/01/20 02:46:23;;;;;;;0.20;0.20;;;;;;;0.13;100.00;99318.16;5111421;28;20219;-58
2024/01/20 02:48:50;;;;;;;0.30;0.30;;;;;;;0.10;100.00;99330.81;5111136;28;20206;-58
2024/01/20 02:51:17;;;;;;;0.60;0.60;;;;;;;0.09;100.00;99334.22;5110986;28;20209;-58
2024/01/20 02:53:44;;;;;;;0.90;0.60;;;;;;;0.12;100.00;99334.13;5110541;28;20206;-58
2024/01/20 02:56:13;;;;;;;0.87;0.67;;;;;;;0.07;100.00;99335.94;5110905;28;20198;-58
2024/01/20 02:58:41;;;;;;;0.87;0.83;;;;;;;0.05;100.00;99337.66;5111034;28;20204;-58
2024/01/20 03:01:08;;;;;;;0.27;0.27;;;;;;;0.09;100.00;99344.28;5110988;28;20320;-58
2024/01/20 03:03:35;;;;;;;1.83;0.47;;;;;;;0.06;100.00;99344.34;5110825;28;20229;-58
2024/01/20 03:06:02;;;;;;;0.40;0.40;;;;;;;0.00;100.00;99359.59;5110820;28;20220;-58
2024/01/20 03:08:29;;;;;;;0.60;0.60;;;;;;;-0.02;100.00;99361.31;5110682;28;20275;-58
2024/01/20 03:10:56;;;;;;;0.83;0.80;;;;;;;0.04;100.00;99356.13;5110794;28;20244;-58
2024/01/20 03:13:22;;;;;;;0.40;0.40;;;;;;;-0.01;100.00;99352.88;5110796;28;20204;-58
2024/01/20 03:15:51;;;;;;;0.97;0.50;;;;;;;-0.05;100.00;99361.38;5110697;28;20200;-58
2024/01/20 03:18:17;;;;;;;0.30;0.30;;;;;;;-0.02;100.00;99373.88;5110706;28;20232;-58
2024/01/20 03:20:44;;;;;;;0.83;0.40;;;;;;;-0.06;100.00;99374.78;5110514;28;20212;-58
2024/01/20 03:23:11;;;;;;;0.20;0.20;;;;;;;-0.03;100.00;99369.69;5110522;28;20717;-58
2024/01/20 03:25:38;;;;;;;0.47;0.30;;;;;;;-0.09;100.00;99364.81;5110668;28;20197;-58
2024/01/20 03:28:04;;;;;;;0.83;0.53;;;;;;;-0.10;100.00;99375.72;5110503;28;20201;-58
2024/01/20 03:30:31;;;;;;;0.20;0.20;;;;;;;-0.11;100.00;99389.19;5110368;28;20303;-58
2024/01/20 03:32:59;;;;;;;0.30;0.30;;;;;;;-0.11;100.00;99396.72;5110305;28;20193;-57
2024/01/20 03:35:26;;;;;;;0.30;0.30;;;;;;;-0.10;100.00;99395.84;5110174;28;20224;-58
2024/01/20 03:37:53;;;;;;;0.30;0.30;;;;;;;-0.07;100.00;99408.34;5110257;28;20229;-57
2024/01/20 03:40:20;;;;;;;0.93;0.60;;;;;;;-0.11;100.00;99407.59;5110403;28;20189;-58
2024/01/20 03:42:46;;;;;;;0.10;0.10;;;;;;;-0.06;100.00;99422.53;5110066;28;20205;-58
2024/01/20 03:45:13;;;;;;;0.47;0.47;;;;;;;-0.10;100.00;99423.47;5110018;28;20198;-58
2024/01/20 03:47:40;;;;;;;0.20;0.20;;;;;;;-0.03;100.00;99440.06;5109850;28;20705;-58
2024/01/20 03:50:10;;;;;;;0.30;0.30;;;;;;;-0.13;100.00;99448.69;5110051;28;20212;-57
2024/01/20 03:52:37;;;;;;;0.87;0.30;;;;;;;-0.06;100.00;99455.22;5109815;28;20274;-58
2024/01/20 03:55:04;;;;;;;0.47;0.47;;;;;;;-0.14;100.00;99462.13;5109850;28;20232;-58
2024/01/20 03:57:31;;;;;;;0.20;0.20;;;;;;;-0.10;100.00;99466.22;5109615;28;20224;-58
2024/01/20 03:59:57;;;;;;;0.20;0.20;;;;;;;-0.03;100.00;99470.22;5110052;28;20197;-58
2024/01/20 04:02:24;;;;;;;0.50;0.37;;;;;;;0.03;100.00;99472.63;5109913;28;20621;-58
2024/01/20 04:04:51;;;;;;;0.10;0.10;;;;;;;0.01;100.00;99471.81;5109377;28;20197;-58
2024/01/20 04:07:19;;;;;;;0.50;0.37;;;;;;;-0.05;100.00;99475.31;5109455;28;20205;-58
2024/01/20 04:09:46;;;;;;;0.90;0.60;;;;;;;0.05;100.00;99472.56;5109397;28;20702;-58
2024/01/20 04:12:13;;;;;;;0.30;0.30;;;;;;;0.04;100.00;99466.72;5110002;28;20194;-58
2024/01/20 04:14:40;;;;;;;0.47;0.47;;;;;;;0.05;100.00;99473.38;5109757;28;20204;-58
2024/01/20 04:17:06;;;;;;;0.13;0.13;;;;;;;0.06;100.00;99484.25;5109240;28;20498;-58
2024/01/20 04:19:33;;;;;;;0.30;0.30;;;;;;;0.02;100.00;99485.22;5109372;28;20206;-58
2024/01/20 04:22:00;;;;;;;0.20;0.20;;;;;;;-0.06;100.00;99495.44;5109342;28;20193;-58
2024/01/20 04:24:28;;;;;;;0.50;0.50;;;;;;;-0.03;100.00;99505.41;5109392;28;20284;-58
2024/01/20 04:26:55;;;;;;;1.50;0.43;;;;;;;-0.06;100.00;99511.34;5109266;28;20204;-58
2024/01/20 04:29:22;;;;;;;0.30;0.30;;;;;;;0.03;100.00;99520.38;5109202;28;20684;-58
2024/01/20 04:31:48;;;;;;;0.20;0.20;;;;;;;0.09;100.00;99525.25;5109142;28;20193;-58
2024/01/20 04:34:15;;;;;;;0.63;0.63;;;;;;;0.08;100.00;99521.09;5109165;28;20205;-58
2024/01/20 04:36:42;;;;;;;0.27;0.27;;;;;;;0.08;100.00;99522.78;5109352;28;20201;-58
2024/01/20 04:39:09;;;;;;;0.20;0.20;;;;;;;0.06;100.00;99540.41;5109385;28;20314;-58
2024/01/20 04:41:37;;;;;;;0.10;0.10;;;;;;;0.03;100.00;99540.50;5109066;28;20221;-58
2024/01/20 04:44:04;;;;;;;0.10;0.10;;;;;;;0.02;100.00;99538.81;5109021;28;20459;-58
2024/01/20 04:46:31;;;;;;;0.30;0.30;;;;;;;0.01;100.00;99547.22;5108990;28;20197;-58
2024/01/20 04:48:58;;;;;;;0.13;0.13;;;;;;;-0.01;100.00;99543.91;5108984;28;20198;-58
2024/01/20 04:51:25;;;;;;;1.67;1.00;;;;;;;0.19;100.00;99556.88;5109291;28;20201;-58
2024/01/20 04:53:51;;;;;;;0.43;0.43;;;;;;;0.15;100.00;99552.78;5108880;28;20204;-58
2024/01/20 04:56:22;;;;;;;0.00;0.00;;;;;;;0.13;100.00;99562.03;5108916;28;20745;-59
2024/01/20 04:58:51;;;;;;;0.17;0.17;;;;;;;0.18;100.00;99560.25;5108805;28;20320;-59
2024/01/20 05:01:18;;;;;;;0.27;0.27;;;;;;;0.13;100.00;99564.56;5108862;28;20203;-59
2024/01/20 05:03:45;;;;;;;0.50;0.50;;;;;;;0.22;100.00;99566.84;5109291;28;20252;-59
2024/01/20 05:06:12;;;;;;;0.20;0.20;;;;;;;0.29;100.00;99571.75;5108970;28;20204;-58
2024/01/20 05:08:39;;;;;;;0.73;0.40;;;;;;;0.28;100.00;99572.63;5108837;28;20205;-59
2024/01/20 05:11:05;;;;;;;0.40;0.40;;;;;;;0.29;100.00;99571.75;5108708;28;20627;-58
2024/01/20 05:13:33;;;;;;;0.20;0.20;;;;;;;0.28;100.00;99580.97;5108704;28;20233;-59
2024/01/20 05:16:01;;;;;;;0.13;0.13;;;;;;;0.39;100.00;99580.75;5108863;28;20225;-59
2024/01/20 05:18:28;;;;;;;0.10;0.10;;;;;;;0.35;100.00;99582.50;5112466;28;20630;-58
2024/01/20 05:20:55;;;;;;;0.30;0.30;;;;;;;0.43;100.00;99584.84;5113023;28;20226;-59
2024/01/20 05:23:22;;;;;;;0.10;0.10;;;;;;;0.42;100.00;99588.22;5113092;28;20197;-59
2024/01/20 05:25:48;;;;;;;0.30;0.30;;;;;;;0.49;100.00;99586.38;5112571;28;20760;-59
2024/01/20 05:28:15;;;;;;;0.30;0.30;;;;;;;0.55;100.00;99598.81;5112780;27;20208;-59
2024/01/20 05:30:43;;;;;;;0.30;0.30;;;;;;;0.61;100.00;99594.50;5112578;28;20197;-59
2024/01/20 05:33:11;;;;;;;1.20;0.50;;;;;;;0.66;100.00;99597.72;5112581;28;20197;-59
2024/01/20 05:35:38;;;;;;;0.20;0.20;;;;;;;0.63;100.00;99599.47;5112749;28;20947;-59
2024/01/20 05:38:05;;;;;;;0.20;0.20;;;;;;;0.59;100.00;99608.78;5112698;28;20233;-59
2024/01/20 05:40:32;;;;;;;0.37;0.37;;;;;;;0.64;100.00;99619.59;5112314;28;20212;-59
2024/01/20 05:42:58;;;;;;;0.10;0.10;;;;;;;0.63;100.00;99617.91;5112363;28;20394;-60
2024/01/20 05:45:25;;;;;;;0.27;0.27;;;;;;;0.75;100.00;99610.94;5112688;28;20193;-60
2024/01/20 05:47:52;;;;;;;1.60;0.40;;;;;;;0.75;100.00;99611.75;5112338;28;20213;-60
2024/01/20 05:50:20;;;;;;;0.70;0.70;;;;;;;0.59;100.00;99613.81;5112238;28;20695;-60
2024/01/20 05:52:47;;;;;;;0.57;0.57;;;;;;;0.64;100.00;99628.78;5112317;28;20205;-60
2024/01/20 05:55:14;;;;;;;0.70;0.70;;;;;;;0.63;100.00;99632.19;5112221;28;20209;-60
2024/01/20 05:57:40;;;;;;;0.33;0.33;;;;;;;0.62;100.00;99638.91;5112429;28;20244;-60
2024/01/20 06:00:09;;;;;;;1.67;0.63;;;;;;;0.65;100.00;99636.31;5112146;28;20205;-60
2024/01/20 06:02:36;;;;;;;0.37;0.37;;;;;;;0.73;100.00;99635.31;5112226;28;20198;-60
2024/01/20 06:05:03;;;;;;;0.30;0.30;;;;;;;0.79;100.00;99643.56;5112109;28;20212;-60
2024/01/20 06:07:31;;;;;;;0.33;0.33;;;;;;;0.86;100.00;99646.75;5111931;28;20197;-61
2024/01/20 06:09:58;;;;;;;0.30;0.30;;;;;;;0.88;100.00;99655.94;5111674;28;20701;-61
2024/01/20 06:12:25;;;;;;;0.30;0.30;;;;;;;0.97;100.00;99662.44;5112421;28;20205;-62
2024/01/20 06:14:52;;;;;;;0.27;0.27;;;;;;;1.00;100.00;99662.34;5111749;27;20201;-62
2024/01/20 06:17:19;;;;;;;0.23;0.23;;;;;;;1.04;100.00;99668.13;5112049;28;20246;-61
2024/01/20 06:19:45;;;;;;;0.57;0.57;;;;;;;1.06;100.00;99671.47;5112189;28;20201;-61
2024/01/20 06:22:12;;;;;;;0.10;0.10;;;;;;;1.10;100.00;99688.97;5111734;27;20208;-62
2024/01/20 06:24:40;;;;;;;0.37;0.37;;;;;;;1.14;100.00;99692.25;5111607;28;20514;-61
2024/01/20 06:27:07;;;;;;;0.23;0.23;;;;;;;1.11;100.00;99694.84;5111589;28;20202;-62
2024/01/20 06:29:34;;;;;;;0.30;0.30;;;;;;;1.15;100.00;99698.94;5110508;28;20197;-62
2024/01/20 06:32:01;;;;;;;0.57;0.53;;;;;;;1.19;100.00;99707.22;5111792;28;20228;-62
2024/01/20 06:34:27;;;;;;;0.60;0.60;;;;;;;1.18;100.00;99720.72;5111754;28;20201;-62
2024/01/20 06:36:54;;;;;;;0.67;0.67;;;;;;;1.07;100.00;99725.97;5111669;28;20193;-62
2024/01/20 06:39:21;;;;;;;1.07;0.77;;;;;;;0.93;100.00;99735.53;5111281;28;20236;-62
2024/01/20 06:41:50;;;;;;;0.20;0.20;;;;;;;0.87;100.00;99741.53;5111299;28;20213;-62
2024/01/20 06:44:17;;;;;;;0.10;0.10;;;;;;;0.62;100.00;99736.22;5111334;28;20193;-62
2024/01/20 06:46:44;;;;;;;0.30;0.30;;;;;;;0.36;100.00;99745.13;5111578;28;20201;-62
2024/01/20 06:49:10;;;;;;;0.10;0.10;;;;;;;0.30;100.00;99745.25;5111082;28;20674;-62
2024/01/20 06:51:37;;;;;;;0.10;0.10;;;;;;;0.04;100.00;99738.22;5111108;28;20231;-61
2024/01/20 06:54:04;;;;;;;0.20;0.20;;;;;;;-0.09;100.00;99742.66;5111155;28;20217;-62
2024/01/20 06:56:31;;;;;;;0.10;0.10;;;;;;;-0.05;100.00;99750.94;5110923;28;20302;-61
2024/01/20 06:59:00;;;;;;;0.30;0.30;;;;;;;-0.21;100.00;99757.09;5110795;28;20594;-61
2024/01/20 07:01:27;;;;;;;0.97;0.70;;;;;;;-0.57;100.00;99754.34;5110950;28;20603;-61
2024/01/20 07:03:54;;;;;;;0.40;0.33;;;;;;;-0.53;100.00;99750.94;5110868;28;20212;-61
2024/01/20 07:06:24;;;;;;;0.20;0.20;;;;;;;-0.60;100.00;99749.38;5111115;28;20450;-61
2024/01/20 07:08:50;;;;;;;0.20;0.20;;;;;;;-0.62;100.00;99766.16;5110769;28;20209;-61
2024/01/20 07:11:17;;;;;;;0.20;0.20;;;;;;;-0.65;100.00;99761.19;5110635;28;20197;-61
2024/01/20 07:13:44;;;;;;;0.00;0.00;;;;;;;-0.61;100.00;99758.59;5110692;28;20202;-60
2024/01/20 07:16:14;;;;;;;0.63;0.63;;;;;;;-0.64;100.00;99767.84;5110866;28;20645;-60
2024/01/20 07:18:41;;;;;;;0.57;0.20;;;;;;;-0.63;100.00;99779.56;5110995;28;20491;-61
2024/01/20 07:21:09;;;;;;;0.47;0.47;;;;;;;-0.56;100.00;99786.13;5110422;28;20203;-61
2024/01/20 07:23:35;;;;;;;0.40;0.40;;;;;;;-0.54;100.00;99779.44;5110504;28;20201;-60
2024/01/20 07:26:02;;;;;;;0.20;0.20;;;;;;;-0.56;100.00;99794.50;5110387;28;20212;-60
2024/01/20 07:28:29;;;;;;;0.97;0.57;;;;;;;-0.54;100.00;99794.50;5110332;28;20964;-59
2024/01/20 07:30:56;;;;;;;2.13;1.50;;;;;;;-0.59;100.00;99801.25;5110418;28;20447;-60
2024/01/20 07:33:24;;;;;;;0.27;0.27;;;;;;;-0.61;100.00;99807.97;5110316;28;20443;-60
2024/01/20 07:35:51;;;;;;;0.33;0.33;;;;;;;-0.60;100.00;99805.47;5110180;28;20822;-60
2024/01/20 07:38:19;;;;;;;1.27;0.83;;;;;;;-0.63;100.00;99814.72;5110163;28;20748;-60
2024/01/20 07:40:46;;;;;;;0.70;0.70;;;;;;;-0.66;100.00;99814.78;5110003;28;20482;-59
2024/01/20 07:43:13;;;;;;;0.37;0.37;;;;;;;-0.68;100.00;99813.09;5110369;28;20611;-60
2024/01/20 07:45:40;;;;;;;1.40;0.93;;;;;;;-0.72;100.00;99816.50;5110339;28;20208;-60
2024/01/20 07:48:07;;;;;;;1.07;0.60;;;;;;;-0.68;100.00;99813.09;5110221;28;20450;-61
2024/01/20 07:50:35;;;;;;;0.90;0.83;;;;;;;-0.62;100.00;99826.41;5110020;28;20379;-61
2024/01/20 07:53:02;;;;;;;0.10;0.10;;;;;;;-0.68;100.00;99833.19;5109848;28;20976;-61
2024/01/20 07:55:29;;;;;;;0.30;0.30;;;;;;;-0.78;100.00;99826.66;5109895;28;20439;-60
2024/01/20 07:57:56;;;;;;;0.00;0.00;;;;;;;-0.69;100.00;99836.56;5109909;28;20443;-60
2024/01/20 08:00:23;;;;;;;0.27;0.27;;;;;;;-0.70;100.00;99839.94;5109833;28;20960;-60
2024/01/20 08:02:50;;;;;;;0.20;0.20;;;;;;;-0.63;100.00;99844.84;5109669;28;20504;-60
2024/01/20 08:05:17;;;;;;;0.43;0.43;;;;;;;-0.69;100.00;99841.56;5109684;28;20454;-60
2024/01/20 08:07:45;;;;;;;0.27;0.27;;;;;;;-0.68;100.00;99853.28;5109726;28;20205;-60
2024/01/20 08:10:12;;;;;;;0.67;0.60;;;;;;;-0.75;100.00;99861.75;5110057;28;20446;-60
2024/01/20 08:12:39;;;;;;;0.10;0.10;;;;;;;-0.65;100.00;99869.16;5109709;28;20527;-60
2024/01/20 08:15:07;;;;;;;0.73;0.70;;;;;;;-0.81;100.00;99871.88;5109403;28;20482;-60
2024/01/20 08:17:34;;;;;;;0.10;0.10;;;;;;;-0.72;100.00;99881.78;5109639;28;20443;-60
2024/01/20 08:20:00;;;;;;;0.63;0.50;;;;;;;-0.81;100.00;99881.94;5109338;28;20498;-59
2024/01/20 08:22:27;;;;;;;0.43;0.43;;;;;;;-0.71;100.00;99892.66;5109268;28;20451;-60
2024/01/20 08:24:56;;;;;;;0.47;0.47;;;;;;;-0.75;100.00;99889.38;5109403;28;20225;-59
2024/01/20 08:27:22;;;;;;;0.20;0.20;;;;;;;-0.73;100.00;99885.16;5109739;28;20200;-60
2024/01/20 08:29:49;;;;;;;0.23;0.20;;;;;;;-0.91;100.00;99895.44;5109240;28;20455;-59
2024/01/20 08:32:16;;;;;;;0.10;0.10;;;;;;;-0.80;100.00;99896.13;5109125;28;20202;-59
2024/01/20 08:34:43;;;;;;;0.10;0.10;;;;;;;-0.83;100.00;99911.22;5109326;28;20197;-59
2024/01/20 08:37:10;;;;;;;0.10;0.10;;;;;;;-0.72;100.00;99921.97;5109118;28;20455;-60
2024/01/20 08:39:36;;;;;;;0.63;0.40;;;;;;;-0.66;100.00;99931.09;5109015;28;20228;-60
2024/01/20 08:42:05;;;;;;;0.70;0.30;;;;;;;-0.65;100.00;99924.41;5109062;28;20197;-59
2024/01/20 08:44:32;;;;;;;0.10;0.10;;;;;;;-0.72;100.00;99932.00;5109139;28;20201;-59
2024/01/20 08:46:59;;;;;;;0.20;0.20;;;;;;;-0.77;100.00;99928.72;5109053;28;20492;-59
2024/01/20 08:49:26;;;;;;;0.10;0.10;;;;;;;-0.70;100.00;99930.31;5109148;28;20212;-59
2024/01/20 08:51:54;;;;;;;0.10;0.10;;;;;;;-0.82;100.00;99930.47;5108458;28;20984;-59
2024/01/20 08:54:21;;;;;;;0.20;0.20;;;;;;;-0.67;100.00;99931.94;5109006;28;21015;-59
2024/01/20 08:56:49;;;;;;;0.30;0.30;;;;;;;-0.69;100.00;99929.47;5109015;28;20197;-59
2024/01/20 08:59:19;;;;;;;0.30;0.30;;;;;;;-0.71;100.00;99938.69;5109080;28;20240;-59
2024/01/20 09:01:46;;;;;;;0.10;0.10;;;;;;;-0.64;100.00;99944.47;5108838;28;20213;-59
2024/01/20 09:04:13;;;;;;;0.53;0.53;;;;;;;-0.70;100.00;99945.38;5108865;28;20700;-59
2024/01/20 09:06:40;;;;;;;1.47;1.37;;;;;;;-0.66;100.00;99946.19;5109041;28;20447;-58
2024/01/20 09:09:07;;;;;;;0.77;0.77;;;;;;;-0.75;100.00;99952.16;5109372;28;20636;-58
2024/01/20 09:11:34;;;;;;;0.40;0.40;;;;;;;-0.72;100.00;99962.16;5108563;28;20224;-58
2024/01/20 09:14:01;;;;;;;0.47;0.43;;;;;;;-0.79;100.00;99965.56;5108763;28;20201;-58
2024/01/20 09:16:29;;;;;;;0.43;0.43;;;;;;;-0.79;100.00;99965.56;5108665;28;20854;-58
2024/01/20 09:18:56;;;;;;;1.57;0.70;;;;;;;-0.87;100.00;99962.34;5108588;28;20525;-58
2024/01/20 09:21:22;;;;;;;0.30;0.30;;;;;;;-1.03;100.00;99961.66;5108650;28;20447;-58
2024/01/20 09:23:50;;;;;;;0.30;0.30;;;;;;;-1.08;100.00;99977.63;5108604;28;20834;-58
2024/01/20 09:26:17;;;;;;;0.30;0.30;;;;;;;-1.09;100.00;99975.97;5108797;28;20831;-58
2024/01/20 09:28:44;;;;;;;0.73;0.40;;;;;;;-1.15;100.00;99986.88;5108676;28;20979;-58
2024/01/20 09:31:11;;;;;;;1.07;0.47;;;;;;;-1.03;100.00;99990.94;5109011;28;20450;-57
2024/01/20 09:33:39;;;;;;;0.67;0.67;;;;;;;-1.01;100.00;99986.75;5108405;28;21051;-58
2024/01/20 09:36:06;;;;;;;0.27;0.20;;;;;;;-0.95;100.00;99999.25;5108512;28;20443;-57
2024/01/20 09:38:33;;;;;;;0.20;0.20;;;;;;;-1.08;100.00;100006.03;5108407;28;20458;-57
2024/01/20 09:41:00;;;;;;;0.23;0.23;;;;;;;-0.99;100.00;99997.59;5108378;28;20964;-57
2024/01/20 09:43:28;;;;;;;0.90;0.60;;;;;;;-1.08;100.00;100002.72;5108417;28;20462;-58
2024/01/20 09:45:58;;;;;;;0.27;0.27;;;;;;;-1.21;100.00;100002.00;5108525;28;20447;-57
2024/01/20 09:48:25;;;;;;;0.77;0.57;;;;;;;-1.28;100.00;100001.25;5108476;28;20980;-57
2024/01/20 09:50:53;;;;;;;1.47;0.60;;;;;;;-1.36;100.00;100010.50;5108442;28;20454;-57
2024/01/20 09:53:20;;;;;;;0.33;0.30;;;;;;;-1.36;100.00;100008.00;5108332;28;20443;-57
2024/01/20 09:55:47;;;;;;;0.30;0.30;;;;;;;-1.29;100.00;100009.59;5108333;28;21033;-57
2024/01/20 09:58:15;;;;;;;0.20;0.20;;;;;;;-1.34;100.00;100006.28;5108415;28;20443;-57
2024/01/20 10:00:43;;;;;;;0.53;0.53;;;;;;;-1.48;100.00;100003.91;5108466;28;20486;-57
2024/01/20 10:03:11;;;;;;;0.13;0.13;;;;;;;-1.47;100.00;100008.09;5108266;28;20462;-57
2024/01/20 10:05:38;;;;;;;0.73;0.70;;;;;;;-1.47;100.00;100015.59;5112011;28;20443;-57
2024/01/20 10:08:07;;;;;;;0.27;0.27;;;;;;;-1.39;100.00;100018.06;5111927;28;20956;-57
2024/01/20 10:10:34;;;;;;;0.73;0.60;;;;;;;-1.35;100.00;100029.72;5111774;27;20439;-57
2024/01/20 10:13:02;;;;;;;0.40;0.40;;;;;;;-1.34;100.00;100010.47;5111876;28;20469;-57
2024/01/20 10:15:30;;;;;;;0.40;0.40;;;;;;;-1.36;100.00;100025.56;5111790;28;20955;-57
2024/01/20 10:17:59;;;;;;;0.10;0.10;;;;;;;-1.34;100.00;100021.34;5111754;28;20754;-57
2024/01/20 10:20:31;;;;;;;0.60;0.60;;;;;;;-1.40;100.00;100026.41;5111797;28;20573;-57
2024/01/20 10:23:01;;;;;;;0.27;0.27;;;;;;;-1.40;100.00;100032.28;5111739;28;20447;-57
2024/01/20 10:25:29;;;;;;;0.50;0.50;;;;;;;-1.29;100.00;100042.22;5111759;28;20806;-57
2024/01/20 10:27:57;;;;;;;0.30;0.30;;;;;;;-1.26;100.00;100049.69;5111737;28;20447;-57
2024/01/20 10:30:24;;;;;;;0.50;0.50;;;;;;;-1.33;100.00;100043.09;5112154;28;20466;-57
2024/01/20 10:32:53;;;;;;;0.57;0.50;;;;;;;-1.32;100.00;100043.91;5111627;28;20482;-57
2024/01/20 10:35:20;;;;;;;0.60;0.60;;;;;;;-1.18;100.00;100040.44;5111726;28;20455;-57
2024/01/20 10:37:49;;;;;;;1.43;1.10;;;;;;;-1.48;100.00;100048.25;5111235;28;20447;-57
2024/01/20 10:40:17;;;;;;;1.50;0.60;;;;;;;-1.45;100.00;100056.56;5111451;27;20892;-57
2024/01/20 10:42:46;;;;;;;1.27;0.80;;;;;;;-1.53;100.00;100048.25;5111352;28;20451;-58
2024/01/20 10:45:17;;;;;;;0.80;0.80;;;;;;;-1.55;100.00;100054.13;5111254;28;20447;-58
2024/01/20 10:47:54;;;;;;;0.40;0.40;;;;;;;-1.45;100.00;100060.75;5111420;28;20529;-57
2024/01/20 10:50:22;;;;;;;1.20;0.73;;;;;;;-1.55;100.00;100061.66;5111495;28;20559;-57
2024/01/20 10:52:50;;;;;;;0.43;0.33;;;;;;;-1.56;100.00;100062.50;5111167;28;20475;-57
2024/01/20 10:55:18;;;;;;;0.83;0.83;;;;;;;-1.55;100.00;100074.19;5111300;28;20447;-57
2024/01/20 10:57:47;;;;;;;0.90;0.50;;;;;;;-1.41;100.00;100077.44;5111204;28;20443;-57
2024/01/20 11:00:15;;;;;;;0.10;0.10;;;;;;;-1.34;100.00;100080.72;5111163;28;20490;-57
2024/01/20 11:02:44;;;;;;;0.13;0.13;;;;;;;-1.35;100.00;100069.84;5111088;28;20439;-58
2024/01/20 11:05:22;;;;;;;0.40;0.40;;;;;;;-1.38;100.00;100083.25;5111020;28;20457;-57
2024/01/20 11:07:57;;;;;;;0.23;0.23;;;;;;;-1.37;100.00;100084.94;5110733;28;20451;-58
2024/01/20 11:10:26;;;;;;;0.33;0.33;;;;;;;-1.31;100.00;100076.53;5110973;28;20482;-58
2024/01/20 11:13:05;;;;;;;0.43;0.17;;;;;;;-1.24;100.00;100090.69;5110983;27;20451;-57
2024/01/20 11:15:33;;;;;;;1.07;0.63;;;;;;;-1.29;100.00;100094.06;5110386;28;20515;-57
2024/01/20 11:18:00;;;;;;;0.60;0.60;;;;;;;-1.18;100.00;100084.78;5110501;28;20999;-57
2024/01/20 11:20:27;;;;;;;0.33;0.33;;;;;;;-1.00;100.00;100092.13;5110648;27;20526;-58
2024/01/20 11:22:55;;;;;;;0.10;0.10;;;;;;;-1.15;100.00;100093.09;5110462;28;20508;-58
2024/01/20 11:25:24;;;;;;;0.60;0.60;;;;;;;-1.13;100.00;100100.63;5110375;28;20463;-57
2024/01/20 11:27:54;;;;;;;1.67;1.30;;;;;;;-1.25;100.00;100101.56;5110372;28;20459;-57
2024/01/20 11:30:30;;;;;;;0.77;0.57;;;;;;;-1.31;100.00;100096.59;5110395;28;20450;-57